createdAt,value
2023-01-08T00:03:40.614Z,96751.56
2023-01-08T00:08:43.281Z,96755.81
2023-01-08T00:13:45.474Z,96744.63
2023-01-08T00:18:48.479Z,96733.56
2023-01-08T00:23:50.620Z,96747.44
2023-01-08T00:28:52.888Z,96737.03
2023-01-08T00:33:55.074Z,96709.63
2023-01-08T00:39:00.111Z,96748.22
2023-01-08T00:44:02.680Z,96690.06
2023-01-08T00:49:04.911Z,96719.25
2023-01-08T00:54:07.250Z,96738.03
2023-01-08T00:59:09.513Z,96714.88
2023-01-08T01:04:11.669Z,96743.13
2023-01-08T01:09:14.122Z,96764.53
2023-01-08T01:14:16.739Z,96732.06
2023-01-08T01:19:19.111Z,96718.44
2023-01-08T01:24:24.051Z,96741.44
2023-01-08T01:29:26.334Z,96713.25
2023-01-08T01:34:33.140Z,96715.84
2023-01-08T01:39:35.419Z,96716.56
2023-01-08T01:44:46.216Z,96707.22
2023-01-08T01:50:00.747Z,96721.72
2023-01-08T01:55:07.686Z,96727.75
2023-01-08T02:00:10.664Z,96682.47
2023-01-08T02:05:17.332Z,96693.59
2023-01-08T02:10:19.813Z,96719.31
2023-01-08T02:15:27.780Z,96717.59
2023-01-08T02:20:29.743Z,96714.16
2023-01-08T02:25:43.028Z,96712.50
2023-01-08T02:30:46.204Z,96686.06
2023-01-08T02:36:10.694Z,96710.81
2023-01-08T02:41:14.582Z,96676.59
2023-01-08T02:46:22.573Z,96677.50
2023-01-08T02:51:31.379Z,96688.59
2023-01-08T02:56:41.835Z,96703.16
2023-01-08T03:01:45.897Z,96667.31
2023-01-08T03:06:48.933Z,96702.31
2023-01-08T03:12:00.672Z,96693.72
2023-01-08T03:17:13.408Z,96691.19
2023-01-08T03:22:18.304Z,96681.78
2023-01-08T03:27:25.276Z,96690.38
2023-01-08T03:32:31.023Z,96701.50
2023-01-08T03:37:39.151Z,96696.41
2023-01-08T03:42:41.452Z,96677.59
2023-01-08T03:47:45.932Z,96658.75
2023-01-08T03:52:48.657Z,96693.75
2023-01-08T03:57:50.867Z,96683.50
2023-01-08T04:02:52.943Z,96674.16
2023-01-08T04:07:58.176Z,96702.34
2023-01-08T04:13:00.519Z,96688.69
2023-01-08T04:18:02.792Z,96690.38
2023-01-08T04:23:04.887Z,96694.66
2023-01-08T04:28:07.035Z,96709.16
2023-01-08T04:33:09.371Z,96697.19
2023-01-08T04:38:11.761Z,96700.63
2023-01-08T04:43:14.256Z,96680.09
2023-01-08T04:48:16.746Z,96692.06
2023-01-08T04:53:18.880Z,96681.81
2023-01-08T04:58:21.426Z,96699.78
2023-01-08T05:03:23.740Z,96698.09
2023-01-08T05:08:26.079Z,96693.84
2023-01-08T05:13:29.301Z,96696.38
2023-01-08T05:18:31.975Z,96698.13
2023-01-08T05:23:34.677Z,96725.44
2023-01-08T05:28:36.728Z,96692.13
2023-01-08T05:33:39.266Z,96718.63
2023-01-08T05:38:42.016Z,96738.28
2023-01-08T05:43:44.505Z,96712.63
2023-01-08T05:48:46.752Z,96692.09
2023-01-08T05:53:49.096Z,96722.84
2023-01-08T05:58:55.273Z,96745.09
2023-01-08T06:03:59.191Z,96736.56
2023-01-08T06:09:01.321Z,96711.75
2023-01-08T06:14:03.479Z,96729.72
2023-01-08T06:19:05.718Z,96739.97
2023-01-08T06:24:08.052Z,96733.09
2023-01-08T06:29:10.270Z,96708.28
2023-01-08T06:34:22.007Z,96716.88
2023-01-08T06:39:24.192Z,96686.06
2023-01-08T06:44:26.728Z,96723.66
2023-01-08T06:49:29.072Z,96724.44
2023-01-08T06:54:31.152Z,96751.78
2023-01-08T06:59:33.498Z,96698.78
2023-01-08T07:04:41.771Z,96711.59
2023-01-08T07:09:44.336Z,96734.50
2023-01-08T07:14:55.697Z,96729.34
2023-01-08T07:19:58.129Z,96741.97
2023-01-08T07:25:03.315Z,96739.16
2023-01-08T07:30:07.152Z,96738.31
2023-01-08T07:35:09.827Z,96704.06
2023-01-08T07:40:12.885Z,96699.47
2023-01-08T07:45:16.664Z,96664.69
2023-01-08T07:50:20.457Z,96644.88
2023-01-08T07:55:23.089Z,96629.00
2023-01-08T08:00:25.569Z,96655.47
2023-01-08T08:05:27.650Z,96650.19
2023-01-08T08:10:30.119Z,96655.41
2023-01-08T08:15:38.523Z,96646.38
2023-01-08T08:20:40.822Z,96629.50
2023-01-08T08:25:43.354Z,96642.00
2023-01-08T08:30:45.457Z,96650.06
2023-01-08T08:35:53.689Z,96660.66
2023-01-08T08:40:56.073Z,96635.97
2023-01-08T08:45:58.515Z,96643.50
2023-01-08T08:51:01.113Z,96632.59
2023-01-08T08:56:03.269Z,96629.59
2023-01-08T09:01:05.657Z,96623.75
2023-01-08T09:06:13.921Z,96636.91
2023-01-08T09:11:16.257Z,96611.59
2023-01-08T09:16:18.621Z,96617.75
2023-01-08T09:21:21.158Z,96615.16
2023-01-08T09:26:23.222Z,96610.78
2023-01-08T09:31:26.382Z,96589.81
2023-01-08T09:36:29.971Z,96595.00
2023-01-08T09:41:35.345Z,96562.19
2023-01-08T09:46:37.835Z,96556.03
2023-01-08T09:51:40.232Z,96544.00
2023-01-08T09:56:42.754Z,96529.94
2023-01-08T10:01:46.763Z,96523.41
2023-01-08T10:07:19.179Z,96504.22
2023-01-08T10:12:27.643Z,96516.31
2023-01-08T10:18:06.411Z,96511.22
2023-01-08T10:23:14.086Z,96471.91
2023-01-08T10:28:28.900Z,96477.88
2023-01-08T10:33:38.653Z,96466.91
2023-01-08T10:38:49.927Z,96469.09
2023-01-08T10:44:05.151Z,96467.53
2023-01-08T10:49:32.701Z,96455.94
2023-01-08T10:54:37.899Z,96451.09
2023-01-08T10:59:42.720Z,96458.13
2023-01-08T11:04:51.662Z,96441.59
2023-01-08T11:09:55.154Z,96460.28
2023-01-08T11:14:57.716Z,96464.06
2023-01-08T11:20:30.900Z,96460.47
2023-01-08T11:25:35.055Z,96461.22
2023-01-08T11:30:39.805Z,96456.75
2023-01-08T11:35:53.184Z,96454.91
2023-01-08T11:41:00.317Z,96441.63
2023-01-08T11:46:31.293Z,96440.41
2023-01-08T11:52:04.471Z,96448.97
2023-01-08T11:57:34.176Z,96443.13
2023-01-08T12:02:56.363Z,96444.88
2023-01-08T12:08:08.658Z,96443.78
2023-01-08T12:13:35.696Z,96445.63
2023-01-08T12:19:02.424Z,96442.66
2023-01-08T12:24:17.700Z,96446.69
2023-01-08T12:29:33.420Z,96427.97
2023-01-08T12:34:53.891Z,96446.72
2023-01-08T12:40:07.412Z,96445.59
2023-01-08T12:45:32.910Z,96441.81
2023-01-08T12:50:45.354Z,96440.63
2023-01-08T12:56:14.807Z,96451.28
2023-01-08T13:01:28.100Z,96461.16
2023-01-08T13:06:31.018Z,96455.97
2023-01-08T13:11:37.887Z,96452.06
2023-01-08T13:16:42.638Z,96461.31
2023-01-08T13:21:53.355Z,96471.63
2023-01-08T13:27:09.774Z,96467.31
2023-01-08T13:32:27.021Z,96474.59
2023-01-08T13:37:29.117Z,96468.94
2023-01-08T13:42:31.636Z,96455.63
2023-01-08T13:47:37.034Z,96468.06
2023-01-08T13:52:49.445Z,96460.06
2023-01-08T13:58:02.322Z,96472.44
2023-01-08T14:03:04.912Z,96460.38
2023-01-08T14:08:22.271Z,96473.94
2023-01-08T14:13:31.170Z,96474.69
2023-01-08T14:18:34.557Z,96469.06
2023-01-08T14:23:43.661Z,96487.47
2023-01-08T14:28:52.907Z,96488.81
2023-01-08T14:33:58.276Z,96496.66
2023-01-08T14:39:00.534Z,96494.47
2023-01-08T14:44:03.182Z,96476.56
2023-01-08T14:49:05.630Z,96479.28
2023-01-08T14:54:10.037Z,96492.13
2023-01-08T14:59:12.852Z,96485.28
2023-01-08T15:04:20.465Z,96495.63
2023-01-08T15:09:31.016Z,96509.34
2023-01-08T15:14:37.522Z,96505.16
2023-01-08T15:19:46.914Z,96513.53
2023-01-08T15:24:59.035Z,96524.69
2023-01-08T15:30:05.731Z,96513.88
2023-01-08T15:35:16.387Z,96528.19
2023-01-08T15:40:18.773Z,96506.81
2023-01-08T15:45:28.093Z,96527.97
2023-01-08T15:50:38.025Z,96517.06
2023-01-08T15:55:43.755Z,96500.38
2023-01-08T16:00:47.120Z,96512.78
2023-01-08T16:05:49.540Z,96512.59
2023-01-08T16:10:55.453Z,96521.00
2023-01-08T16:15:57.896Z,96522.94
2023-01-08T16:21:01.749Z,96501.56
2023-01-08T16:26:14.983Z,96537.78
2023-01-08T16:31:17.208Z,96536.16
2023-01-08T16:36:19.660Z,96497.91
2023-01-08T16:41:21.997Z,96527.28
2023-01-08T16:46:24.365Z,96527.25
2023-01-08T16:51:28.018Z,96525.78
2023-01-08T16:56:30.355Z,96531.25
2023-01-08T17:01:35.928Z,96542.13
2023-01-08T17:06:38.553Z,96554.66
2023-01-08T17:11:40.692Z,96550.00
2023-01-08T17:16:46.113Z,96549.41
2023-01-08T17:21:50.922Z,96535.59
2023-01-08T17:26:53.316Z,96532.75
2023-01-08T17:31:55.674Z,96556.16
2023-01-08T17:36:58.015Z,96534.22
2023-01-08T17:42:38.854Z,96567.78
2023-01-08T17:47:41.128Z,96502.53
2023-01-08T17:52:47.781Z,96513.16
2023-01-08T17:57:50.208Z,96558.28
2023-01-08T18:02:52.865Z,96513.44
2023-01-08T18:07:57.696Z,96514.44
2023-01-08T18:12:59.961Z,96542.94
2023-01-08T18:18:04.927Z,96476.38
2023-01-08T18:23:07.555Z,96503.44
2023-01-08T18:28:10.061Z,96528.41
2023-01-08T18:33:16.307Z,96496.72
2023-01-08T18:38:18.518Z,96507.47
2023-01-08T18:43:26.112Z,96519.22
2023-01-08T18:48:34.523Z,96471.16
2023-01-08T18:53:40.283Z,96517.16
2023-01-08T18:58:42.959Z,96559.94
2023-01-08T19:03:48.490Z,96552.34
2023-01-08T19:08:51.945Z,96501.97
2023-01-08T19:13:57.538Z,96515.00
2023-01-08T19:19:00.511Z,96520.56
2023-01-08T19:24:02.938Z,96557.25
2023-01-08T19:29:05.366Z,96558.06
2023-01-08T19:34:07.504Z,96500.19
2023-01-08T19:39:11.410Z,96516.56
2023-01-08T19:44:13.818Z,96561.59
2023-01-08T19:49:20.896Z,96489.41
2023-01-08T19:54:31.956Z,96537.78
2023-01-08T19:59:35.969Z,96547.97
2023-01-08T20:04:44.040Z,96492.63
2023-01-08T20:09:48.945Z,96537.19
2023-01-08T20:14:51.425Z,96519.28
2023-01-08T20:19:58.623Z,96550.56
2023-01-08T20:25:00.998Z,96531.00
2023-01-08T20:30:05.344Z,96532.28
2023-01-08T20:35:13.717Z,96461.22
2023-01-08T20:40:25.258Z,96474.19
2023-01-08T20:45:27.681Z,96549.22
2023-01-08T20:50:30.205Z,96554.38
2023-01-08T20:55:32.574Z,96541.69
2023-01-08T21:00:34.758Z,96493.75
2023-01-08T21:05:38.568Z,96493.59
2023-01-08T21:10:40.972Z,96521.72
2023-01-08T21:15:43.308Z,96529.56
2023-01-08T21:20:45.971Z,96538.97
2023-01-08T21:25:49.359Z,96500.59
2023-01-08T21:30:51.953Z,96513.41
2023-01-08T21:35:54.083Z,96544.16
2023-01-08T21:41:04.780Z,96519.53
2023-01-08T21:46:07.238Z,96507.53
2023-01-08T21:51:30.088Z,96548.47
2023-01-08T21:56:32.706Z,96534.97
2023-01-08T22:01:34.991Z,96531.41
2023-01-08T22:06:37.185Z,96521.28
2023-01-08T22:11:48.180Z,96493.06
2023-01-08T22:16:50.313Z,96540.19
2023-01-08T22:21:52.758Z,96503.59
2023-01-08T22:26:55.253Z,96480.50
2023-01-08T22:31:57.554Z,96488.94
2023-01-08T22:36:59.707Z,96524.09
2023-01-08T22:42:02.182Z,96529.22
2023-01-08T22:47:06.397Z,96508.72
2023-01-08T22:52:10.028Z,96533.44
2023-01-08T22:57:12.385Z,96510.47
2023-01-08T23:02:14.850Z,96485.56
2023-01-08T23:07:17.775Z,96495.00
2023-01-08T23:12:19.985Z,96481.31
2023-01-08T23:17:22.448Z,96526.44
2023-01-08T23:22:24.914Z,96525.59
2023-01-08T23:27:30.530Z,96510.38
2023-01-08T23:32:33.014Z,96501.78
2023-01-08T23:37:35.521Z,96471.13
2023-01-08T23:42:37.735Z,96457.56
2023-01-08T23:47:39.977Z,96471.31
2023-01-08T23:52:42.503Z,96447.41
2023-01-08T23:57:45.508Z,96500.16
